createdAt,value
2019-04-10T00:00:39.227Z,59.92
2019-04-10T00:05:44.439Z,59.64
2019-04-10T00:10:48.682Z,59.51
2019-04-10T00:15:52.908Z,59.86
2019-04-10T00:20:56.974Z,59.86
2019-04-10T00:26:01.474Z,60.16
2019-04-10T00:31:05.759Z,60.16
2019-04-10T00:36:10.047Z,59.90
2019-04-10T00:41:14.238Z,60.29
2019-04-10T00:46:18.282Z,59.98
2019-04-10T00:51:23.423Z,60.43
2019-04-10T00:56:28.363Z,60.24
2019-04-10T01:01:32.512Z,60.66
2019-04-10T01:06:36.572Z,60.62
2019-04-10T01:11:41.401Z,60.64
2019-04-10T01:16:45.631Z,60.26
2019-04-10T01:21:50.697Z,60.49
2019-04-10T01:26:55.832Z,60.44
2019-04-10T01:31:59.939Z,60.62
2019-04-10T01:37:04.775Z,60.71
2019-04-10T01:42:08.983Z,60.56
2019-04-10T01:47:13.087Z,61.17
2019-04-10T01:52:17.300Z,60.67
2019-04-10T01:57:21.962Z,61.23
2019-04-10T02:02:31.624Z,61.35
2019-04-10T02:07:35.709Z,60.86
2019-04-10T02:12:40.941Z,61.08
2019-04-10T02:17:45.149Z,61.58
2019-04-10T02:22:49.915Z,61.58
2019-04-10T02:27:54.391Z,61.24
2019-04-10T02:32:59.774Z,61.48
2019-04-10T02:38:24.447Z,61.56
2019-04-10T02:43:11.773Z,61.90
2019-04-10T02:48:16.949Z,61.90
2019-04-10T02:53:21.689Z,61.65
2019-04-10T02:58:26.531Z,61.62
2019-04-10T03:03:30.694Z,61.51
2019-04-10T03:08:51.558Z,61.88
2019-04-10T03:13:40.765Z,61.85
2019-04-10T03:18:45.183Z,61.74
2019-04-10T03:23:49.608Z,61.74
2019-04-10T03:28:53.710Z,61.86
2019-04-10T03:34:20.772Z,61.97
2019-04-10T03:39:23.751Z,62.11
2019-04-10T03:44:27.787Z,61.97
2019-04-10T03:49:32.286Z,62.44
2019-04-10T03:54:37.425Z,62.17
2019-04-10T03:59:42.114Z,61.96
2019-04-10T04:04:48.043Z,61.18
2019-04-10T04:09:52.203Z,61.18
2019-04-10T04:14:56.920Z,61.49
2019-04-10T04:20:01.051Z,61.51
2019-04-10T04:25:06.817Z,61.51
2019-04-10T04:30:12.601Z,61.07
2019-04-10T04:35:17.565Z,61.20
2019-04-10T04:40:21.825Z,61.20
2019-04-10T04:45:25.807Z,61.09
2019-04-10T04:50:29.798Z,61.14
2019-04-10T04:55:33.806Z,61.14
2019-04-10T05:00:37.854Z,61.23
2019-04-10T05:05:41.861Z,61.23
2019-04-10T05:10:46.045Z,60.77
2019-04-10T05:15:51.305Z,61.14
2019-04-10T05:20:56.657Z,61.34
2019-04-10T05:26:00.912Z,61.34
2019-04-10T05:31:04.918Z,61.34
2019-04-10T05:36:09.018Z,61.35
2019-04-10T05:41:13.380Z,61.13
2019-04-10T05:46:18.606Z,61.13
2019-04-10T05:51:23.337Z,60.91
2019-04-10T05:56:27.955Z,60.87
2019-04-10T06:01:36.727Z,61.39
2019-04-10T06:06:38.718Z,61.39
2019-04-10T06:11:44.508Z,61.17
2019-04-10T06:16:48.988Z,61.12
2019-04-10T06:21:53.044Z,60.98
2019-04-10T06:26:57.124Z,61.30
2019-04-10T06:32:01.229Z,61.06
2019-04-10T06:37:06.142Z,61.24
2019-04-10T06:42:10.316Z,60.98
2019-04-10T06:47:14.406Z,61.45
2019-04-10T06:52:18.634Z,51.53
2019-04-10T06:57:22.945Z,47.71
2019-04-10T07:02:30.539Z,47.71
2019-04-10T07:07:45.489Z,47.69
2019-04-10T07:12:39.731Z,47.68
2019-04-10T07:17:45.019Z,46.73
2019-04-10T07:22:49.728Z,46.73
2019-04-10T07:27:54.352Z,47.44
2019-04-10T07:32:59.272Z,48.98
2019-04-10T07:38:03.491Z,48.98
2019-04-10T07:43:07.493Z,45.89
2019-04-10T07:48:12.769Z,45.90
2019-04-10T07:53:16.993Z,45.90
2019-04-10T07:58:21.485Z,49.33
2019-04-10T08:03:25.833Z,50.42
2019-04-10T08:08:30.067Z,52.23
2019-04-10T08:13:34.155Z,52.97
2019-04-10T08:18:39.354Z,53.10
2019-04-10T08:23:44.600Z,53.10
2019-04-10T08:28:49.710Z,54.28
2019-04-10T08:33:54.777Z,54.20
2019-04-10T08:38:59.243Z,53.86
2019-04-10T08:44:04.438Z,53.86
2019-04-10T08:49:08.828Z,54.77
2019-04-10T08:54:12.845Z,54.77
2019-04-10T08:59:17.314Z,54.99
2019-04-10T09:04:21.322Z,55.42
2019-04-10T09:09:25.722Z,55.42
2019-04-10T09:14:29.880Z,55.39
2019-04-10T09:19:34.054Z,55.97
2019-04-10T09:24:38.415Z,56.21
2019-04-10T09:29:42.710Z,53.68
2019-04-10T09:34:48.120Z,52.76
2019-04-10T09:39:53.442Z,52.75
2019-04-10T09:44:57.975Z,52.26
2019-04-10T09:50:02.295Z,49.63
2019-04-10T09:55:07.628Z,50.17
2019-04-10T10:00:12.063Z,50.17
2019-04-10T10:05:16.203Z,51.53
2019-04-10T10:10:20.650Z,49.48
2019-04-10T10:15:25.299Z,49.63
2019-04-10T10:20:30.697Z,49.63
2019-04-10T10:25:35.398Z,50.81
2019-04-10T10:30:39.750Z,50.81
2019-04-10T10:35:43.910Z,50.61
2019-04-10T10:40:48.754Z,50.61
2019-04-10T10:45:53.428Z,50.95
2019-04-10T10:50:58.282Z,49.44
2019-04-10T10:56:02.446Z,49.44
2019-04-10T11:01:07.419Z,50.74
2019-04-10T11:06:12.857Z,48.71
2019-04-10T11:11:17.184Z,46.80
2019-04-10T11:16:21.294Z,45.97
2019-04-10T11:21:25.376Z,45.97
2019-04-10T11:26:30.288Z,44.90
2019-04-10T11:31:35.658Z,44.90
2019-04-10T11:36:40.107Z,44.07
2019-04-10T11:41:45.788Z,43.54
2019-04-10T11:46:52.676Z,42.64
2019-04-10T11:51:59.587Z,42.35
2019-04-10T11:57:03.262Z,42.35
2019-04-10T12:02:08.818Z,42.46
2019-04-10T12:07:49.141Z,42.44
2019-04-10T12:12:19.528Z,41.91
2019-04-10T12:17:23.659Z,42.12
2019-04-10T12:22:27.807Z,41.54
2019-04-10T12:27:31.924Z,41.25
2019-04-10T12:32:36.718Z,41.25
2019-04-10T12:37:41.251Z,40.01
2019-04-10T12:42:46.163Z,43.19
2019-04-10T12:47:50.328Z,43.19
2019-04-10T12:52:54.732Z,45.43
2019-04-10T12:58:06.660Z,45.65
2019-04-10T13:03:05.110Z,46.17
2019-04-10T13:08:17.872Z,46.80
2019-04-10T13:13:15.201Z,46.80
2019-04-10T13:18:20.445Z,47.44
2019-04-10T13:23:24.830Z,49.11
2019-04-10T13:28:29.722Z,49.28
2019-04-10T13:33:33.965Z,49.29
2019-04-10T13:38:38.384Z,49.29
2019-04-10T13:43:42.584Z,49.64
2019-04-10T13:48:47.259Z,50.04
2019-04-10T13:53:52.332Z,49.91
2019-04-10T13:58:56.399Z,49.91
2019-04-10T14:04:00.845Z,50.29
2019-04-10T14:09:28.104Z,50.29
2019-04-10T14:14:16.191Z,50.97
2019-04-10T14:19:21.401Z,50.97
2019-04-10T14:24:26.314Z,51.36
2019-04-10T14:29:32.264Z,51.36
2019-04-10T14:34:36.641Z,51.92
2019-04-10T14:39:41.151Z,51.76
2019-04-10T14:44:46.466Z,51.76
2019-04-10T14:49:52.567Z,51.91
2019-04-10T14:54:56.531Z,52.18
2019-04-10T15:00:00.700Z,52.05
2019-04-10T15:05:05.819Z,52.11
2019-04-10T15:10:10.234Z,52.11
2019-04-10T15:15:14.380Z,52.44
2019-04-10T15:20:18.370Z,52.57
2019-04-10T15:25:23.001Z,53.33
2019-04-10T15:30:27.146Z,53.08
2019-04-10T15:35:31.228Z,53.08
2019-04-10T15:40:36.453Z,52.89
2019-04-10T15:45:40.892Z,52.64
2019-04-10T15:50:45.092Z,52.95
2019-04-10T15:55:49.578Z,52.60
2019-04-10T16:00:53.869Z,50.92
2019-04-10T16:05:57.903Z,51.13
2019-04-10T16:11:19.775Z,51.13
2019-04-10T16:16:48.967Z,50.52
2019-04-10T16:21:54.269Z,48.37
2019-04-10T16:26:58.433Z,48.37
2019-04-10T16:32:02.605Z,47.95
2019-04-10T16:37:06.856Z,47.95
2019-04-10T16:42:11.061Z,47.81
2019-04-10T16:47:15.249Z,46.96
2019-04-10T16:52:19.317Z,46.96
2019-04-10T16:57:23.361Z,47.01
2019-04-10T17:02:28.387Z,47.30
2019-04-10T17:07:32.803Z,46.89
2019-04-10T17:12:37.802Z,46.54
2019-04-10T17:17:42.358Z,46.46
2019-04-10T17:22:49.197Z,46.46
2019-04-10T17:27:52.239Z,47.10
2019-04-10T17:32:56.394Z,46.02
2019-04-10T17:38:00.453Z,46.28
2019-04-10T17:43:05.673Z,46.19
2019-04-10T17:48:09.772Z,46.33
2019-04-10T17:53:15.202Z,46.69
2019-04-10T17:58:19.698Z,45.89
2019-04-10T18:03:25.369Z,45.82
2019-04-10T18:08:30.171Z,45.82
2019-04-10T18:13:34.294Z,46.03
2019-04-10T18:18:38.380Z,47.01
2019-04-10T18:23:42.401Z,46.90
2019-04-10T18:28:46.657Z,46.90
2019-04-10T18:33:53.014Z,47.84
2019-04-10T18:38:57.717Z,48.58
2019-04-10T18:44:01.903Z,48.57
2019-04-10T18:49:07.209Z,48.94
2019-04-10T18:54:12.420Z,48.95
2019-04-10T18:59:26.832Z,48.95
2019-04-10T19:04:36.250Z,48.96
2019-04-10T19:09:41.006Z,49.03
2019-04-10T19:14:45.293Z,49.03
2019-04-10T19:19:50.791Z,49.42
2019-04-10T19:24:54.972Z,49.52
2019-04-10T19:29:59.343Z,49.67
2019-04-10T19:35:04.681Z,50.05
2019-04-10T19:40:09.339Z,50.00
2019-04-10T19:45:13.881Z,50.58
2019-04-10T19:50:17.945Z,50.58
2019-04-10T19:55:22.048Z,50.55
2019-04-10T20:00:31.193Z,50.72
2019-04-10T20:05:37.247Z,50.77
2019-04-10T20:10:41.643Z,51.76
2019-04-10T20:15:46.840Z,51.38
2019-04-10T20:20:51.396Z,51.38
2019-04-10T20:25:56.748Z,51.60
2019-04-10T20:31:01.339Z,51.75
2019-04-10T20:36:06.744Z,52.00
2019-04-10T20:41:11.062Z,52.45
2019-04-10T20:46:15.177Z,52.57
2019-04-10T20:51:19.213Z,52.45
2019-04-10T20:56:24.270Z,52.07
2019-04-10T21:01:28.804Z,52.41
2019-04-10T21:06:33.867Z,52.41
2019-04-10T21:11:38.061Z,52.45
2019-04-10T21:16:42.235Z,52.58
2019-04-10T21:21:46.868Z,52.56
2019-04-10T21:26:51.021Z,52.76
2019-04-10T21:32:05.535Z,52.66
2019-04-10T21:37:10.218Z,52.78
2019-04-10T21:42:21.090Z,53.29
2019-04-10T21:47:20.215Z,53.13
2019-04-10T21:52:25.368Z,53.13
2019-04-10T21:57:29.985Z,53.33
2019-04-10T22:02:34.398Z,53.33
2019-04-10T22:08:07.128Z,53.73
2019-04-10T22:13:11.675Z,53.73
2019-04-10T22:23:20.190Z,53.68
2019-04-10T22:28:25.337Z,53.96
2019-04-10T22:33:29.977Z,54.10
2019-04-10T22:38:34.336Z,53.96
2019-04-10T22:43:38.714Z,54.01
2019-04-10T22:48:43.693Z,54.66
2019-04-10T22:53:48.063Z,54.95
2019-04-10T22:58:53.227Z,54.87
2019-04-10T23:03:57.643Z,54.56
2019-04-10T23:09:02.129Z,54.56
2019-04-10T23:14:06.808Z,55.34
2019-04-10T23:19:11.961Z,55.20
2019-04-10T23:24:16.328Z,55.50
2019-04-10T23:29:20.459Z,55.50
2019-04-10T23:40:16.898Z,55.59
2019-04-10T23:45:21.807Z,55.51
2019-04-10T23:50:26.184Z,55.51
2019-04-10T23:55:30.279Z,55.68
